createdAt,value
2019-05-19T00:02:02.488Z,17.80
2019-05-19T00:04:32.890Z,17.80
2019-05-19T00:07:03.237Z,17.80
2019-05-19T00:09:33.548Z,17.70
2019-05-19T00:12:03.870Z,17.70
2019-05-19T00:14:35.328Z,17.70
2019-05-19T00:17:06.158Z,17.60
2019-05-19T00:19:38.327Z,17.60
2019-05-19T00:22:08.681Z,17.60
2019-05-19T00:24:38.940Z,17.50
2019-05-19T00:27:09.330Z,17.50
2019-05-19T00:29:39.764Z,17.50
2019-05-19T00:32:10.161Z,17.50
2019-05-19T00:34:40.482Z,17.50
2019-05-19T00:37:10.782Z,17.40
2019-05-19T00:39:41.060Z,17.40
2019-05-19T00:42:11.374Z,17.40
2019-05-19T00:44:41.841Z,17.40
2019-05-19T00:47:18.285Z,17.30
2019-05-19T00:49:48.675Z,17.30
2019-05-19T00:52:18.980Z,17.30
2019-05-19T00:54:49.765Z,17.30
2019-05-19T00:57:21.246Z,17.20
2019-05-19T00:59:52.172Z,17.30
2019-05-19T01:02:22.471Z,17.30
2019-05-19T01:04:52.892Z,17.30
2019-05-19T01:07:23.197Z,17.20
2019-05-19T01:09:53.511Z,17.20
2019-05-19T01:12:23.813Z,17.10
2019-05-19T01:14:54.132Z,17.10
2019-05-19T01:17:24.688Z,17.10
2019-05-19T01:19:56.335Z,17.00
2019-05-19T01:22:26.927Z,16.90
2019-05-19T01:24:57.320Z,16.90
2019-05-19T01:27:27.628Z,16.90
2019-05-19T01:29:58.920Z,16.90
2019-05-19T01:32:29.564Z,16.90
2019-05-19T01:34:59.900Z,16.90
2019-05-19T01:37:30.244Z,16.80
2019-05-19T01:40:00.569Z,16.80
2019-05-19T01:42:30.860Z,16.80
2019-05-19T01:45:01.209Z,16.80
2019-05-19T01:47:31.952Z,16.80
2019-05-19T01:50:17.048Z,16.80
2019-05-19T01:52:34.234Z,16.80
2019-05-19T01:55:04.638Z,16.80
2019-05-19T01:57:36.028Z,16.80
2019-05-19T02:00:06.760Z,16.70
2019-05-19T02:02:37.224Z,16.70
2019-05-19T02:05:07.869Z,16.70
2019-05-19T02:07:38.534Z,16.70
2019-05-19T02:10:09.405Z,16.70
2019-05-19T02:12:39.772Z,16.70
2019-05-19T02:15:10.312Z,16.60
2019-05-19T02:17:40.656Z,16.60
2019-05-19T02:20:12.268Z,16.50
2019-05-19T02:22:42.638Z,16.60
2019-05-19T02:25:13.764Z,16.60
2019-05-19T02:27:44.459Z,16.50
2019-05-19T02:30:15.587Z,16.50
2019-05-19T02:32:45.947Z,16.50
2019-05-19T02:35:16.542Z,16.50
2019-05-19T02:37:47.226Z,16.50
2019-05-19T02:40:18.253Z,16.50
2019-05-19T02:42:50.872Z,16.50
2019-05-19T02:45:21.176Z,16.50
2019-05-19T02:47:53.408Z,16.50
2019-05-19T02:50:25.453Z,16.40
2019-05-19T02:52:58.621Z,16.40
2019-05-19T02:55:29.193Z,16.40
2019-05-19T02:58:01.003Z,16.40
2019-05-19T03:00:39.279Z,16.40
2019-05-19T03:03:09.567Z,16.40
2019-05-19T03:05:39.940Z,16.40
2019-05-19T03:08:10.230Z,16.40
2019-05-19T03:10:40.573Z,16.40
2019-05-19T03:13:10.863Z,16.40
2019-05-19T03:15:41.221Z,16.50
2019-05-19T03:18:11.503Z,16.40
2019-05-19T03:20:42.173Z,16.50
2019-05-19T03:23:12.473Z,16.50
2019-05-19T03:25:44.224Z,16.50
2019-05-19T03:28:14.819Z,16.50
2019-05-19T03:31:14.548Z,16.50
2019-05-19T03:33:46.845Z,16.50
2019-05-19T03:36:18.184Z,16.50
2019-05-19T03:38:48.465Z,16.50
2019-05-19T03:41:21.601Z,16.50
2019-05-19T03:43:51.903Z,16.50
2019-05-19T03:46:22.253Z,16.50
2019-05-19T03:48:52.593Z,16.50
2019-05-19T03:51:30.652Z,16.50
2019-05-19T03:53:56.811Z,16.50
2019-05-19T03:56:27.172Z,16.60
2019-05-19T03:58:57.511Z,16.60
2019-05-19T04:01:27.809Z,16.60
2019-05-19T04:03:58.277Z,16.60
2019-05-19T04:06:28.672Z,16.70
2019-05-19T04:08:59.953Z,16.60
2019-05-19T04:11:30.657Z,16.60
2019-05-19T04:14:00.982Z,16.70
2019-05-19T04:16:31.638Z,16.70
2019-05-19T04:19:01.975Z,16.70
2019-05-19T04:21:47.565Z,16.80
2019-05-19T04:24:04.692Z,16.80
2019-05-19T04:26:35.051Z,16.90
2019-05-19T04:29:06.417Z,17.00
2019-05-19T04:31:37.145Z,17.10
2019-05-19T04:34:07.453Z,17.10
2019-05-19T04:36:37.809Z,17.20
2019-05-19T04:39:08.541Z,17.20
2019-05-19T04:41:46.671Z,17.20
2019-05-19T04:44:16.972Z,17.20
2019-05-19T04:46:47.664Z,17.30
2019-05-19T04:49:17.977Z,17.30
2019-05-19T04:52:05.527Z,17.30
2019-05-19T04:54:20.827Z,17.40
2019-05-19T04:56:52.265Z,17.40
2019-05-19T04:59:22.677Z,17.50
2019-05-19T05:01:53.109Z,17.50
2019-05-19T05:04:29.081Z,17.50
2019-05-19T05:06:55.962Z,17.50
2019-05-19T05:09:27.370Z,17.60
2019-05-19T05:11:57.692Z,17.60
2019-05-19T05:14:28.048Z,17.70
2019-05-19T05:16:58.380Z,17.70
2019-05-19T05:19:28.682Z,17.80
2019-05-19T05:21:59.006Z,17.80
2019-05-19T05:24:29.285Z,17.90
2019-05-19T05:26:59.612Z,17.90
2019-05-19T05:29:30.293Z,17.90
2019-05-19T05:32:00.682Z,17.90
2019-05-19T05:34:31.097Z,18.00
2019-05-19T05:37:01.418Z,18.00
2019-05-19T05:39:31.727Z,18.00
2019-05-19T05:42:02.079Z,18.00
2019-05-19T05:44:32.455Z,18.10
2019-05-19T05:47:02.794Z,18.20
2019-05-19T05:49:33.142Z,18.20
2019-05-19T05:52:03.854Z,18.30
2019-05-19T05:54:34.244Z,18.40
2019-05-19T05:57:04.674Z,18.50
2019-05-19T05:59:35.023Z,18.60
2019-05-19T06:02:05.432Z,18.60
2019-05-19T06:04:35.780Z,18.70
2019-05-19T06:09:49.416Z,18.70
2019-05-19T06:12:19.714Z,18.80
2019-05-19T06:14:50.358Z,18.80
2019-05-19T06:17:20.665Z,18.80
2019-05-19T06:19:51.000Z,18.80
2019-05-19T06:22:22.360Z,18.80
2019-05-19T06:24:53.018Z,18.80
2019-05-19T06:27:23.401Z,18.80
2019-05-19T06:29:53.766Z,18.90
2019-05-19T06:32:33.280Z,18.90
2019-05-19T06:35:03.661Z,18.90
2019-05-19T06:37:34.022Z,19.00
2019-05-19T06:40:04.671Z,19.00
2019-05-19T06:42:35.044Z,19.00
2019-05-19T06:45:05.916Z,19.10
2019-05-19T06:47:36.362Z,19.10
2019-05-19T06:50:07.570Z,19.20
2019-05-19T06:52:39.105Z,19.30
2019-05-19T06:55:11.474Z,19.40
2019-05-19T06:57:41.904Z,19.40
2019-05-19T07:00:12.882Z,19.50
2019-05-19T07:02:43.656Z,19.60
2019-05-19T07:05:14.587Z,19.70
2019-05-19T07:07:44.950Z,19.70
2019-05-19T07:10:15.358Z,19.90
2019-05-19T07:12:46.064Z,19.90
2019-05-19T07:15:16.609Z,19.90
2019-05-19T07:17:46.981Z,19.90
2019-05-19T07:20:17.308Z,19.90
2019-05-19T07:22:48.822Z,19.80
2019-05-19T07:25:19.122Z,19.80
2019-05-19T07:27:49.456Z,19.80
2019-05-19T07:30:19.970Z,20.00
2019-05-19T07:32:50.342Z,20.00
2019-05-19T07:35:20.649Z,20.10
2019-05-19T07:37:51.795Z,20.10
2019-05-19T07:40:22.136Z,20.10
2019-05-19T07:42:52.476Z,20.10
2019-05-19T07:45:22.888Z,20.20
2019-05-19T07:47:53.492Z,20.20
2019-05-19T07:50:23.890Z,20.30
2019-05-19T07:52:54.243Z,20.40
2019-05-19T07:55:24.557Z,20.40
2019-05-19T07:57:55.026Z,20.50
2019-05-19T08:00:25.330Z,20.70
2019-05-19T08:02:55.771Z,20.80
2019-05-19T08:05:26.076Z,21.20
2019-05-19T08:07:56.421Z,21.80
2019-05-19T08:10:27.806Z,22.50
2019-05-19T08:13:02.050Z,22.80
2019-05-19T08:15:32.338Z,23.10
2019-05-19T08:18:05.390Z,23.40
2019-05-19T08:20:35.714Z,23.60
2019-05-19T08:23:06.985Z,23.60
2019-05-19T08:25:37.298Z,23.60
2019-05-19T08:28:09.131Z,23.50
2019-05-19T08:30:39.740Z,23.40
2019-05-19T08:33:10.112Z,23.60
2019-05-19T08:35:40.427Z,24.30
2019-05-19T08:38:10.838Z,24.80
2019-05-19T08:40:41.148Z,24.90
2019-05-19T08:43:11.495Z,24.80
2019-05-19T08:45:41.863Z,24.60
2019-05-19T08:48:12.248Z,24.20
2019-05-19T08:50:42.552Z,23.90
2019-05-19T08:53:14.128Z,23.70
2019-05-19T08:55:44.510Z,23.60
2019-05-19T08:58:14.946Z,23.30
2019-05-19T09:00:45.307Z,23.10
2019-05-19T09:03:15.676Z,22.90
2019-05-19T09:05:47.914Z,22.90
2019-05-19T09:08:18.098Z,22.70
2019-05-19T09:10:48.606Z,22.60
2019-05-19T09:13:18.943Z,22.30
2019-05-19T09:15:49.262Z,22.10
2019-05-19T09:18:19.637Z,22.10
2019-05-19T09:20:49.932Z,22.10
2019-05-19T09:23:21.038Z,22.10
2019-05-19T09:26:10.427Z,22.10
2019-05-19T09:28:41.102Z,22.10
2019-05-19T09:31:11.858Z,22.10
2019-05-19T09:33:42.184Z,22.10
2019-05-19T09:36:12.531Z,22.10
2019-05-19T09:38:42.833Z,22.00
2019-05-19T09:41:13.213Z,22.00
2019-05-19T09:43:43.629Z,22.00
2019-05-19T09:46:14.853Z,22.00
2019-05-19T09:48:45.495Z,21.90
2019-05-19T09:51:15.841Z,21.80
2019-05-19T09:53:46.231Z,21.80
2019-05-19T09:56:16.614Z,21.70
2019-05-19T09:58:47.006Z,21.60
2019-05-19T10:01:17.593Z,21.50
2019-05-19T10:03:49.044Z,21.60
2019-05-19T10:06:19.453Z,21.70
2019-05-19T10:09:02.133Z,22.10
2019-05-19T10:12:06.088Z,22.20
2019-05-19T10:14:36.545Z,22.20
2019-05-19T10:17:06.907Z,22.20
2019-05-19T10:19:37.219Z,22.10
2019-05-19T10:22:07.647Z,22.00
2019-05-19T10:24:39.042Z,22.00
2019-05-19T10:27:09.387Z,22.00
2019-05-19T10:29:39.756Z,22.00
2019-05-19T10:32:10.116Z,22.00
2019-05-19T10:34:40.801Z,22.00
2019-05-19T10:37:11.224Z,21.90
2019-05-19T10:39:41.582Z,22.00
2019-05-19T10:42:13.048Z,22.00
2019-05-19T10:44:43.450Z,22.00
2019-05-19T10:47:13.806Z,22.10
2019-05-19T10:49:44.165Z,22.20
2019-05-19T10:52:14.598Z,22.30
2019-05-19T10:54:45.911Z,22.30
2019-05-19T10:57:16.220Z,22.40
2019-05-19T10:59:47.214Z,22.40
2019-05-19T11:02:17.528Z,22.30
2019-05-19T11:04:48.318Z,22.20
2019-05-19T11:07:18.672Z,22.20
2019-05-19T11:09:49.035Z,22.10
2019-05-19T11:12:20.293Z,22.10
2019-05-19T11:14:50.625Z,22.20
2019-05-19T11:17:21.002Z,22.30
2019-05-19T11:19:51.294Z,22.50
2019-05-19T11:22:22.065Z,22.80
2019-05-19T11:24:52.957Z,23.00
2019-05-19T11:27:23.286Z,23.20
2019-05-19T11:29:53.589Z,23.40
2019-05-19T11:32:24.034Z,23.70
2019-05-19T11:34:54.378Z,24.00
2019-05-19T11:37:24.782Z,24.30
2019-05-19T11:39:55.075Z,24.50
2019-05-19T11:42:25.500Z,24.70
2019-05-19T11:44:55.804Z,25.10
2019-05-19T11:47:26.125Z,25.20
2019-05-19T11:49:56.421Z,25.40
2019-05-19T11:52:26.765Z,25.40
2019-05-19T11:54:58.172Z,25.60
2019-05-19T11:57:28.521Z,25.60
2019-05-19T11:59:58.872Z,25.40
2019-05-19T12:02:29.207Z,25.40
2019-05-19T12:04:59.633Z,25.40
2019-05-19T12:07:29.944Z,25.60
2019-05-19T12:10:00.381Z,25.70
2019-05-19T12:12:30.710Z,25.60
2019-05-19T12:15:01.042Z,25.50
2019-05-19T12:17:31.432Z,25.30
2019-05-19T12:20:01.782Z,25.30
2019-05-19T12:22:32.102Z,25.30
2019-05-19T12:25:03.515Z,25.30
2019-05-19T12:27:33.876Z,25.10
2019-05-19T12:30:04.312Z,24.90
2019-05-19T12:32:34.657Z,24.80
2019-05-19T12:35:05.261Z,24.50
2019-05-19T12:37:35.754Z,24.00
2019-05-19T12:40:06.193Z,23.40
2019-05-19T12:42:36.731Z,22.60
2019-05-19T12:45:09.863Z,22.10
2019-05-19T12:47:41.400Z,21.70
2019-05-19T12:50:12.098Z,21.50
2019-05-19T12:52:44.747Z,21.50
2019-05-19T12:55:16.198Z,21.50
2019-05-19T12:57:46.622Z,21.50
2019-05-19T13:00:17.440Z,21.50
2019-05-19T13:02:47.856Z,21.50
2019-05-19T13:05:18.364Z,21.60
2019-05-19T13:07:48.783Z,21.60
2019-05-19T13:10:19.163Z,21.60
2019-05-19T13:12:49.470Z,21.70
2019-05-19T13:15:20.154Z,21.80
2019-05-19T13:17:50.488Z,21.90
2019-05-19T13:20:20.940Z,22.00
2019-05-19T13:22:51.274Z,22.20
2019-05-19T13:25:22.924Z,22.30
2019-05-19T13:27:53.254Z,22.40
2019-05-19T13:30:23.572Z,22.60
2019-05-19T13:32:54.338Z,22.60
2019-05-19T13:35:24.707Z,22.60
2019-05-19T13:37:55.029Z,22.60
2019-05-19T13:40:25.360Z,22.60
2019-05-19T13:42:55.742Z,22.70
2019-05-19T13:45:27.207Z,22.70
2019-05-19T13:47:57.591Z,22.80
2019-05-19T13:50:27.922Z,23.00
2019-05-19T13:52:58.226Z,23.10
2019-05-19T13:55:29.622Z,23.20
2019-05-19T13:58:03.425Z,23.20
2019-05-19T14:00:32.323Z,23.30
2019-05-19T14:03:02.699Z,23.50
2019-05-19T14:05:33.107Z,23.50
2019-05-19T14:08:03.443Z,23.40
2019-05-19T14:10:34.523Z,23.50
2019-05-19T14:13:04.820Z,23.40
2019-05-19T14:15:35.513Z,23.50
2019-05-19T14:18:07.953Z,23.50
2019-05-19T14:20:38.217Z,23.60
2019-05-19T14:23:09.568Z,23.60
2019-05-19T14:25:42.084Z,23.70
2019-05-19T14:28:12.464Z,23.70
2019-05-19T14:30:42.755Z,23.80
2019-05-19T14:33:14.477Z,23.70
2019-05-19T14:35:44.788Z,23.80
2019-05-19T14:38:15.131Z,23.90
2019-05-19T14:40:45.418Z,23.90
2019-05-19T14:43:16.697Z,23.90
2019-05-19T14:45:47.033Z,24.00
2019-05-19T14:48:17.418Z,23.90
2019-05-19T14:50:47.737Z,23.90
2019-05-19T14:53:18.084Z,23.90
2019-05-19T14:55:50.154Z,24.00
2019-05-19T14:58:20.495Z,24.00
2019-05-19T15:00:50.853Z,24.00
2019-05-19T15:03:21.177Z,24.00
2019-05-19T15:05:51.616Z,23.90
2019-05-19T15:08:22.080Z,23.90
2019-05-19T15:10:52.485Z,23.80
2019-05-19T15:13:22.936Z,23.70
2019-05-19T15:15:53.431Z,23.70
2019-05-19T15:18:23.722Z,23.70
2019-05-19T15:20:54.058Z,23.80
2019-05-19T15:23:24.441Z,23.80
2019-05-19T15:25:56.655Z,23.90
2019-05-19T15:28:27.055Z,23.90
2019-05-19T15:30:57.378Z,23.90
2019-05-19T15:33:28.161Z,23.80
2019-05-19T15:35:58.493Z,23.80
2019-05-19T15:38:28.795Z,23.70
2019-05-19T15:41:00.216Z,23.60
2019-05-19T15:43:30.564Z,23.60
2019-05-19T15:46:01.008Z,23.40
2019-05-19T15:48:31.335Z,23.30
2019-05-19T15:51:01.717Z,23.30
2019-05-19T15:53:32.023Z,23.30
2019-05-19T15:56:03.388Z,23.40
2019-05-19T15:58:33.703Z,23.50
2019-05-19T16:01:04.067Z,23.60
2019-05-19T16:03:34.356Z,23.70
2019-05-19T16:06:05.842Z,23.80
2019-05-19T16:08:36.154Z,23.70
2019-05-19T16:11:06.537Z,23.80
2019-05-19T16:13:48.661Z,23.80
2019-05-19T16:16:19.053Z,23.70
2019-05-19T16:18:49.407Z,23.70
2019-05-19T16:21:20.150Z,23.60
2019-05-19T16:23:50.636Z,23.60
2019-05-19T16:26:21.987Z,23.50
2019-05-19T16:28:52.308Z,23.40
2019-05-19T16:31:22.699Z,23.40
2019-05-19T16:33:52.997Z,23.30
2019-05-19T16:36:23.334Z,23.30
2019-05-19T16:38:53.654Z,23.20
2019-05-19T16:41:23.977Z,23.20
2019-05-19T16:43:54.319Z,23.20
2019-05-19T16:46:24.716Z,23.10
2019-05-19T16:48:55.129Z,23.10
2019-05-19T16:51:25.451Z,23.00
2019-05-19T16:54:00.102Z,23.00
2019-05-19T16:56:31.506Z,23.00
2019-05-19T16:59:04.138Z,22.90
2019-05-19T17:01:35.604Z,22.90
2019-05-19T17:04:05.956Z,22.80
2019-05-19T17:06:36.379Z,22.80
2019-05-19T17:09:08.588Z,22.70
2019-05-19T17:11:39.362Z,22.70
2019-05-19T17:14:09.689Z,22.70
2019-05-19T17:16:40.031Z,22.70
2019-05-19T17:19:10.386Z,22.60
2019-05-19T17:21:40.708Z,22.50
2019-05-19T17:24:11.035Z,22.50
2019-05-19T17:26:41.382Z,22.40
2019-05-19T17:29:11.674Z,22.30
2019-05-19T17:31:42.026Z,22.30
2019-05-19T17:34:12.882Z,22.20
2019-05-19T17:36:43.314Z,22.20
2019-05-19T17:39:13.748Z,22.20
2019-05-19T17:41:44.136Z,22.10
2019-05-19T17:44:14.477Z,22.10
2019-05-19T17:46:45.039Z,22.00
2019-05-19T17:49:15.726Z,22.00
2019-05-19T17:51:46.128Z,21.90
2019-05-19T17:54:16.415Z,21.90
2019-05-19T17:56:47.985Z,21.80
2019-05-19T17:59:18.402Z,21.70
2019-05-19T18:01:48.828Z,21.70
2019-05-19T18:04:19.105Z,21.60
2019-05-19T18:06:49.468Z,21.60
2019-05-19T18:09:20.896Z,21.50
2019-05-19T18:11:51.200Z,21.50
2019-05-19T18:14:21.587Z,21.50
2019-05-19T18:16:52.406Z,21.40
2019-05-19T18:19:22.796Z,21.30
2019-05-19T18:21:53.483Z,21.30
2019-05-19T18:24:42.832Z,21.20
2019-05-19T18:27:13.178Z,21.20
2019-05-19T18:29:43.561Z,21.10
2019-05-19T18:32:13.879Z,21.10
2019-05-19T18:34:44.271Z,21.00
2019-05-19T18:37:14.575Z,21.00
2019-05-19T18:39:44.939Z,21.00
2019-05-19T18:42:15.376Z,20.90
2019-05-19T18:44:45.702Z,20.90
2019-05-19T18:47:16.029Z,20.80
2019-05-19T18:49:46.390Z,20.80
2019-05-19T18:52:16.795Z,20.70
2019-05-19T18:54:47.136Z,20.70
2019-05-19T18:57:17.512Z,20.60
2019-05-19T18:59:48.046Z,20.50
2019-05-19T19:02:18.503Z,20.40
2019-05-19T19:04:48.865Z,20.40
2019-05-19T19:07:19.259Z,20.30
2019-05-19T19:09:49.585Z,20.20
2019-05-19T19:12:19.956Z,20.20
2019-05-19T19:14:50.292Z,20.10
2019-05-19T19:17:20.673Z,20.10
2019-05-19T19:19:50.992Z,20.00
2019-05-19T19:22:21.366Z,19.90
2019-05-19T19:24:51.659Z,19.80
2019-05-19T19:27:22.040Z,19.70
2019-05-19T19:30:03.105Z,19.60
2019-05-19T19:32:25.954Z,19.60
2019-05-19T19:34:56.282Z,19.60
2019-05-19T19:37:26.685Z,19.50
2019-05-19T19:39:56.968Z,19.50
2019-05-19T19:42:27.353Z,19.50
2019-05-19T19:44:57.732Z,19.50
2019-05-19T19:47:28.043Z,19.50
2019-05-19T19:49:58.414Z,19.40
2019-05-19T19:52:28.752Z,19.40
2019-05-19T19:54:59.136Z,19.30
2019-05-19T19:57:30.475Z,19.30
2019-05-19T20:00:15.801Z,19.20
2019-05-19T20:02:35.492Z,19.20
2019-05-19T20:05:06.065Z,19.20
2019-05-19T20:07:36.871Z,19.20
2019-05-19T20:10:09.431Z,19.10
2019-05-19T20:12:40.185Z,19.10
2019-05-19T20:15:16.159Z,19.00
2019-05-19T20:17:46.553Z,18.90
2019-05-19T20:20:17.008Z,18.90
2019-05-19T20:22:51.236Z,18.90
2019-05-19T20:25:21.948Z,18.90
2019-05-19T20:27:52.773Z,18.80
2019-05-19T20:30:35.146Z,18.80
2019-05-19T20:32:55.986Z,18.70
2019-05-19T20:35:27.175Z,18.70
2019-05-19T20:37:57.796Z,18.70
2019-05-19T20:40:28.490Z,18.70
2019-05-19T20:42:59.081Z,18.60
2019-05-19T20:45:31.301Z,18.60
2019-05-19T20:48:04.842Z,18.60
2019-05-19T20:50:36.058Z,18.60
2019-05-19T20:53:06.908Z,18.60
2019-05-19T20:55:37.487Z,18.60
2019-05-19T20:58:08.563Z,18.60
2019-05-19T21:00:49.850Z,18.60
2019-05-19T21:03:11.259Z,18.60
2019-05-19T21:05:42.080Z,18.60
2019-05-19T21:08:12.759Z,18.60
2019-05-19T21:10:43.284Z,18.60
2019-05-19T21:13:14.928Z,18.60
2019-05-19T21:15:46.873Z,18.60
2019-05-19T21:18:18.935Z,18.60
2019-05-19T21:20:49.460Z,18.60
2019-05-19T21:23:20.122Z,18.60
2019-05-19T21:25:50.685Z,18.60
2019-05-19T21:28:21.749Z,18.50
2019-05-19T21:31:04.981Z,18.60
2019-05-19T21:33:24.762Z,18.60
2019-05-19T21:35:55.312Z,18.60
2019-05-19T21:38:25.921Z,18.60
2019-05-19T21:40:57.526Z,18.60
2019-05-19T21:43:28.917Z,18.60
2019-05-19T21:46:00.315Z,18.50
2019-05-19T21:48:34.950Z,18.60
2019-05-19T21:51:05.314Z,18.60
2019-05-19T21:53:38.719Z,18.60
2019-05-19T21:56:09.808Z,18.50
2019-05-19T21:58:40.491Z,18.50
2019-05-19T22:01:22.732Z,18.50
2019-05-19T22:03:47.207Z,18.50
2019-05-19T22:06:19.764Z,18.50
2019-05-19T22:08:50.210Z,18.40
2019-05-19T22:11:20.612Z,18.40
2019-05-19T22:13:51.232Z,18.40
2019-05-19T22:16:21.838Z,18.40
2019-05-19T22:18:52.412Z,18.40
2019-05-19T22:21:22.760Z,18.40
2019-05-19T22:23:53.345Z,18.30
2019-05-19T22:26:23.985Z,18.30
2019-05-19T22:28:54.469Z,18.30
2019-05-19T22:31:36.613Z,18.30
2019-05-19T22:34:01.409Z,18.30
2019-05-19T22:36:32.403Z,18.30
2019-05-19T22:39:03.236Z,18.30
2019-05-19T22:41:35.062Z,18.30
2019-05-19T22:44:06.277Z,18.30
2019-05-19T22:46:37.481Z,18.30
2019-05-19T22:49:09.143Z,18.20
2019-05-19T22:51:39.504Z,18.20
2019-05-19T22:54:11.042Z,18.20
2019-05-19T22:56:41.836Z,18.20
2019-05-19T22:59:19.897Z,18.20
2019-05-19T23:01:51.906Z,18.20
2019-05-19T23:04:18.508Z,18.20
2019-05-19T23:06:48.817Z,18.20
2019-05-19T23:09:19.569Z,18.20
2019-05-19T23:11:50.622Z,18.20
2019-05-19T23:14:21.929Z,18.10
2019-05-19T23:16:52.536Z,18.10
2019-05-19T23:19:24.607Z,18.10
2019-05-19T23:21:55.398Z,18.10
2019-05-19T23:24:26.115Z,18.10
2019-05-19T23:26:56.438Z,18.00
2019-05-19T23:29:26.774Z,18.00
2019-05-19T23:32:06.825Z,18.00
2019-05-19T23:34:33.067Z,18.00
2019-05-19T23:37:06.669Z,18.00
2019-05-19T23:39:37.636Z,17.90
2019-05-19T23:42:07.995Z,17.90
2019-05-19T23:44:38.456Z,17.90
2019-05-19T23:47:12.343Z,17.90
2019-05-19T23:49:44.824Z,17.80
2019-05-19T23:52:15.216Z,17.90
2019-05-19T23:54:47.135Z,17.90
2019-05-19T23:57:19.258Z,17.80
2019-05-19T23:59:50.870Z,17.80
